createdAt,value
2022-08-14T00:01:54.695Z,19.41
2022-08-14T00:04:31.965Z,19.37
2022-08-14T00:07:07.057Z,19.34
2022-08-14T00:09:56.373Z,19.45
2022-08-14T00:12:23.821Z,19.58
2022-08-14T00:14:54.890Z,19.58
2022-08-14T00:17:22.071Z,19.52
2022-08-14T00:19:48.447Z,19.44
2022-08-14T00:22:44.634Z,19.30
2022-08-14T00:25:06.518Z,19.32
2022-08-14T00:27:35.423Z,19.37
2022-08-14T00:30:07.354Z,19.24
2022-08-14T00:32:52.249Z,19.31
2022-08-14T00:35:20.312Z,19.45
2022-08-14T00:38:02.330Z,19.50
2022-08-14T00:40:35.440Z,19.47
2022-08-14T00:43:02.394Z,19.32
2022-08-14T00:45:30.440Z,19.34
2022-08-14T00:47:58.325Z,19.36
2022-08-14T00:50:28.305Z,19.34
2022-08-14T00:52:56.117Z,19.20
2022-08-14T00:55:23.262Z,19.19
2022-08-14T00:58:10.046Z,19.24
2022-08-14T01:00:45.507Z,19.20
2022-08-14T01:03:20.301Z,18.94
2022-08-14T01:05:52.216Z,18.85
2022-08-14T01:08:51.576Z,18.95
2022-08-14T01:11:08.225Z,19.11
2022-08-14T01:13:42.197Z,18.99
2022-08-14T01:16:13.993Z,18.92
2022-08-14T01:19:01.376Z,18.86
2022-08-14T01:21:38.515Z,18.98
2022-08-14T01:24:15.199Z,19.06
2022-08-14T01:26:52.455Z,18.98
2022-08-14T01:29:43.147Z,18.98
2022-08-14T01:32:07.132Z,19.00
2022-08-14T01:35:18.014Z,18.96
2022-08-14T01:37:23.428Z,18.78
2022-08-14T01:39:50.162Z,18.72
2022-08-14T01:42:31.175Z,18.89
2022-08-14T01:45:05.340Z,18.96
2022-08-14T01:47:37.328Z,18.91
2022-08-14T01:50:06.276Z,18.85
2022-08-14T01:52:59.351Z,18.87
2022-08-14T01:55:32.303Z,18.96
2022-08-14T01:58:01.406Z,18.86
2022-08-14T02:00:44.892Z,18.77
2022-08-14T02:03:15.876Z,18.81
2022-08-14T02:05:42.263Z,18.82
2022-08-14T02:08:10.541Z,18.88
2022-08-14T02:10:47.185Z,18.83
2022-08-14T02:13:16.043Z,18.61
2022-08-14T02:15:43.451Z,18.72
2022-08-14T02:18:10.415Z,18.84
2022-08-14T02:20:38.540Z,18.85
2022-08-14T02:23:06.584Z,18.87
2022-08-14T02:25:34.888Z,18.87
2022-08-14T02:28:22.971Z,18.96
2022-08-14T02:30:48.541Z,19.06
2022-08-14T02:33:19.544Z,19.00
2022-08-14T02:35:48.251Z,18.87
2022-08-14T02:38:29.572Z,18.86
2022-08-14T02:40:58.447Z,18.95
2022-08-14T02:43:37.398Z,18.93
2022-08-14T02:46:13.610Z,18.76
2022-08-14T02:49:02.561Z,18.68
2022-08-14T02:51:36.364Z,18.66
2022-08-14T02:54:05.242Z,18.76
2022-08-14T02:57:14.415Z,18.77
2022-08-14T02:59:19.357Z,18.76
2022-08-14T03:01:50.298Z,18.58
2022-08-14T03:04:20.170Z,18.63
2022-08-14T03:06:57.797Z,18.70
2022-08-14T03:09:41.941Z,18.66
2022-08-14T03:12:26.971Z,18.55
2022-08-14T03:14:58.801Z,18.63
2022-08-14T03:17:26.396Z,18.68
2022-08-14T03:19:58.114Z,18.67
2022-08-14T03:22:25.289Z,18.71
2022-08-14T03:24:54.187Z,18.74
2022-08-14T03:27:20.532Z,18.63
2022-08-14T03:29:52.846Z,18.39
2022-08-14T03:32:20.208Z,18.32
2022-08-14T03:34:58.548Z,18.26
2022-08-14T03:39:09.222Z,18.19
2022-08-14T03:40:12.885Z,18.15
2022-08-14T03:42:45.313Z,18.21
2022-08-14T03:45:25.561Z,18.30
2022-08-14T03:48:01.819Z,18.42
2022-08-14T03:50:31.601Z,18.45
2022-08-14T03:53:03.064Z,18.35
2022-08-14T03:55:30.671Z,18.27
2022-08-14T03:57:57.881Z,18.28
2022-08-14T04:00:40.575Z,18.34
2022-08-14T04:03:13.288Z,18.42
2022-08-14T04:05:48.578Z,18.33
2022-08-14T04:08:22.920Z,18.35
2022-08-14T04:10:57.309Z,18.49
2022-08-14T04:13:24.070Z,18.43
2022-08-14T04:16:01.402Z,18.20
2022-08-14T04:18:29.714Z,18.07
2022-08-14T04:20:57.988Z,18.14
2022-08-14T04:23:31.867Z,18.27
2022-08-14T04:26:01.913Z,18.33
2022-08-14T04:29:08.190Z,18.31
2022-08-14T04:31:15.676Z,18.18
2022-08-14T04:33:42.449Z,18.10
2022-08-14T04:36:16.111Z,18.02
2022-08-14T04:39:03.101Z,17.94
2022-08-14T04:41:48.079Z,18.01
2022-08-14T04:44:36.233Z,18.07
2022-08-14T04:47:22.111Z,18.19
2022-08-14T04:49:56.939Z,18.33
2022-08-14T04:52:24.884Z,18.37
2022-08-14T04:54:51.470Z,18.33
2022-08-14T04:57:17.910Z,18.38
2022-08-14T04:59:45.737Z,18.39
2022-08-14T05:02:13.684Z,18.45
2022-08-14T05:04:45.286Z,18.60
2022-08-14T05:07:46.496Z,18.68
2022-08-14T05:10:13.002Z,18.88
2022-08-14T05:13:12.780Z,19.01
2022-08-14T05:15:29.423Z,19.23
2022-08-14T05:18:16.837Z,19.30
2022-08-14T05:21:55.938Z,19.49
2022-08-14T05:23:37.285Z,19.68
2022-08-14T05:26:13.189Z,19.75
2022-08-14T05:28:44.699Z,19.72
2022-08-14T05:31:13.844Z,19.77
2022-08-14T05:33:54.900Z,19.84
2022-08-14T05:36:23.751Z,20.06
2022-08-14T05:38:50.949Z,20.10
2022-08-14T05:41:20.024Z,20.24
2022-08-14T05:43:49.976Z,20.37
2022-08-14T05:46:18.980Z,20.29
2022-08-14T05:48:50.296Z,20.31
2022-08-14T05:51:17.045Z,20.32
2022-08-14T05:53:43.738Z,20.35
2022-08-14T05:56:29.189Z,20.44
2022-08-14T05:58:55.858Z,20.39
2022-08-14T06:01:22.392Z,20.43
2022-08-14T06:03:50.182Z,20.51
2022-08-14T06:06:23.256Z,20.49
2022-08-14T06:08:52.646Z,20.63
2022-08-14T06:11:27.988Z,20.71
2022-08-14T06:13:58.478Z,20.77
2022-08-14T06:16:24.853Z,20.92
2022-08-14T06:18:52.475Z,21.09
2022-08-14T06:21:20.205Z,21.24
2022-08-14T06:23:48.950Z,21.26
2022-08-14T06:26:15.730Z,21.35
2022-08-14T06:28:45.611Z,21.41
2022-08-14T06:31:12.178Z,21.49
2022-08-14T06:35:01.413Z,21.57
2022-08-14T06:36:25.324Z,21.58
2022-08-14T06:38:53.816Z,21.65
2022-08-14T06:41:56.700Z,21.73
2022-08-14T06:44:07.303Z,21.82
2022-08-14T06:46:37.191Z,21.94
2022-08-14T06:49:04.309Z,21.92
2022-08-14T06:51:38.460Z,22.20
2022-08-14T06:56:54.314Z,22.25
2022-08-14T07:11:47.914Z,22.48
2022-08-14T07:14:56.960Z,22.58
2022-08-14T07:20:32.073Z,22.62
2022-08-14T07:23:07.821Z,22.80
2022-08-14T07:25:40.433Z,22.81
2022-08-14T07:28:20.542Z,22.91
2022-08-14T07:30:51.075Z,23.05
2022-08-14T07:36:09.065Z,23.06
2022-08-14T07:38:53.840Z,23.11
2022-08-14T07:41:20.262Z,23.16
2022-08-14T07:43:57.611Z,23.23
2022-08-14T07:46:28.228Z,23.38
2022-08-14T07:48:58.156Z,23.30
2022-08-14T07:51:25.969Z,23.36
2022-08-14T07:56:48.338Z,23.22
2022-08-14T07:59:17.829Z,23.18
2022-08-14T08:01:51.445Z,23.07
2022-08-14T08:04:25.247Z,23.14
2022-08-14T08:06:54.860Z,23.31
2022-08-14T08:09:32.346Z,23.55
2022-08-14T08:12:05.081Z,23.66
2022-08-14T08:17:20.936Z,23.87
2022-08-14T08:19:48.415Z,24.23
2022-08-14T08:22:18.554Z,24.46
2022-08-14T08:27:21.473Z,24.64
2022-08-14T08:29:50.665Z,24.59
2022-08-14T08:32:18.195Z,24.67
2022-08-14T08:34:46.449Z,24.83
2022-08-14T08:37:14.026Z,25.18
2022-08-14T08:40:02.334Z,25.33
2022-08-14T08:42:38.805Z,25.29
2022-08-14T08:45:25.193Z,25.26
2022-08-14T08:47:54.345Z,25.08
2022-08-14T08:50:31.282Z,25.15
2022-08-14T08:53:05.144Z,25.28
2022-08-14T08:55:38.472Z,25.60
2022-08-14T08:58:12.369Z,25.82
2022-08-14T09:00:47.084Z,25.95
2022-08-14T09:07:00.945Z,25.75
2022-08-14T09:11:37.464Z,25.98
2022-08-14T09:14:04.737Z,26.10
2022-08-14T09:16:32.323Z,26.07
2022-08-14T09:21:48.396Z,25.69
2022-08-14T09:24:28.679Z,25.80
2022-08-14T09:30:31.379Z,25.59
2022-08-14T09:33:25.122Z,25.49
2022-08-14T09:38:57.206Z,25.72
2022-08-14T09:42:20.658Z,25.49
2022-08-14T09:45:08.454Z,25.54
2022-08-14T09:48:03.110Z,25.53
2022-08-14T09:50:45.970Z,25.50
2022-08-14T09:53:19.566Z,25.30
2022-08-14T09:55:59.280Z,25.28
2022-08-14T09:58:38.104Z,25.21
2022-08-14T10:01:20.370Z,25.09
2022-08-14T10:03:55.756Z,25.07
2022-08-14T10:06:28.247Z,25.15
2022-08-14T10:09:06.473Z,25.16
2022-08-14T10:11:43.365Z,25.12
2022-08-14T10:14:21.156Z,24.95
2022-08-14T10:17:18.869Z,25.07
2022-08-14T11:00:20.826Z,25.37
2022-08-14T11:03:02.800Z,25.34
2022-08-14T11:05:47.758Z,25.23
2022-08-14T11:08:16.424Z,25.13
2022-08-14T11:10:55.690Z,25.12
2022-08-14T11:13:28.840Z,25.15
2022-08-14T11:16:01.984Z,25.27
2022-08-14T11:18:35.859Z,25.40
2022-08-14T11:21:06.728Z,25.45
2022-08-14T11:23:38.131Z,25.55
2022-08-14T11:26:08.143Z,25.74
2022-08-14T11:28:47.543Z,25.88
2022-08-14T11:34:01.558Z,25.92
2022-08-14T11:36:35.069Z,25.99
2022-08-14T11:39:34.717Z,26.16
2022-08-14T11:42:58.508Z,26.39
2022-08-14T11:45:00.715Z,26.61
2022-08-14T12:03:57.212Z,27.30
2022-08-14T12:06:29.082Z,27.23
2022-08-14T13:05:47.365Z,29.06
2022-08-14T13:08:33.329Z,29.25
2022-08-14T16:00:54.744Z,27.80
2022-08-14T16:03:27.760Z,27.80
2022-08-14T16:06:04.362Z,27.63
2022-08-14T16:08:34.186Z,27.59
2022-08-14T16:11:03.354Z,27.49
2022-08-14T16:13:41.383Z,27.47
2022-08-14T16:16:49.364Z,27.36
2022-08-14T16:19:07.334Z,27.42
2022-08-14T16:21:39.401Z,27.14
2022-08-14T16:24:06.308Z,27.10
2022-08-14T16:26:33.738Z,26.99
2022-08-14T16:29:15.334Z,27.05
2022-08-14T16:31:43.581Z,27.04
2022-08-14T16:34:44.598Z,26.97
2022-08-14T16:36:58.828Z,26.89
2022-08-14T16:39:25.478Z,26.91
2022-08-14T16:41:58.584Z,26.93
2022-08-14T16:44:35.138Z,26.97
2022-08-14T16:47:03.829Z,26.89
2022-08-14T16:50:03.043Z,26.79
2022-08-14T16:52:25.762Z,26.84
2022-08-14T16:55:07.132Z,26.87
2022-08-14T16:57:34.007Z,26.76
2022-08-14T17:00:01.119Z,26.62
2022-08-14T17:02:41.626Z,26.48
2022-08-14T17:05:20.862Z,26.51
2022-08-14T17:08:28.502Z,26.57
2022-08-14T17:10:52.166Z,26.56
2022-08-14T17:13:47.429Z,26.48
2022-08-14T17:16:24.658Z,26.40
2022-08-14T17:19:00.128Z,26.26
2022-08-14T17:21:32.431Z,26.07
2022-08-14T17:24:57.434Z,26.27
2022-08-14T17:27:00.044Z,26.14
2022-08-14T17:29:32.880Z,25.99
2022-08-14T17:32:28.399Z,26.03
2022-08-14T17:34:55.413Z,25.90
2022-08-14T17:37:28.965Z,25.82
2022-08-14T17:40:15.209Z,25.69
2022-08-14T17:42:55.740Z,25.60
2022-08-14T17:45:38.846Z,25.35
2022-08-14T17:49:16.254Z,25.22
2022-08-14T17:51:16.960Z,25.30
2022-08-14T17:53:53.829Z,25.16
2022-08-14T17:56:31.455Z,25.07
2022-08-14T17:59:05.882Z,24.93
2022-08-14T18:01:37.733Z,24.91
2022-08-14T18:04:25.114Z,24.76
2022-08-14T18:06:58.497Z,24.71
2022-08-14T18:09:57.306Z,24.56
2022-08-14T18:12:41.098Z,24.65
2022-08-14T18:15:18.539Z,24.38
2022-08-14T18:17:53.251Z,24.27
2022-08-14T18:21:40.616Z,24.28
2022-08-14T18:23:13.098Z,24.19
2022-08-14T18:25:47.070Z,24.19
2022-08-14T18:28:18.350Z,24.13
2022-08-14T18:31:20.699Z,24.15
2022-08-14T18:33:58.750Z,24.11
2022-08-14T18:36:54.281Z,24.07
2022-08-14T18:39:29.731Z,24.09
2022-08-14T18:42:23.378Z,23.96
2022-08-14T18:44:50.570Z,23.97
2022-08-14T18:47:17.384Z,23.89
2022-08-14T18:49:52.958Z,23.86
2022-08-14T18:52:41.750Z,23.79
2022-08-14T18:55:20.990Z,23.71
2022-08-14T19:13:12.076Z,23.29
2022-08-14T19:15:56.286Z,23.26
2022-08-14T19:18:26.021Z,23.28
2022-08-14T19:31:55.711Z,23.00
2022-08-14T19:34:53.143Z,22.95
2022-08-14T19:37:56.096Z,22.87
2022-08-14T19:40:39.931Z,22.87
2022-08-14T19:43:09.549Z,22.87
2022-08-14T19:45:38.300Z,22.89
2022-08-14T19:48:12.767Z,22.87
2022-08-14T19:50:44.266Z,22.79
2022-08-14T19:53:17.280Z,22.71
2022-08-14T19:55:54.384Z,22.75
2022-08-14T19:58:27.981Z,22.74
2022-08-14T20:00:57.133Z,22.57
2022-08-14T20:03:24.756Z,22.47
2022-08-14T20:06:05.338Z,22.48
2022-08-14T20:09:05.885Z,22.52
2022-08-14T20:11:58.591Z,22.44
2022-08-14T20:14:29.752Z,22.42
2022-08-14T20:17:04.678Z,22.31
2022-08-14T20:19:37.900Z,22.32
2022-08-14T20:22:36.407Z,22.33
2022-08-14T20:25:10.902Z,22.32
2022-08-14T20:27:40.779Z,22.26
2022-08-14T20:30:29.682Z,22.29
2022-08-14T20:33:02.104Z,22.26
2022-08-14T20:35:43.306Z,22.12
2022-08-14T20:38:29.133Z,22.05
2022-08-14T20:41:00.949Z,22.00
2022-08-14T20:43:52.893Z,21.92
2022-08-14T20:46:29.541Z,21.85
2022-08-14T20:49:04.733Z,21.67
2022-08-14T20:51:47.528Z,21.57
2022-08-14T20:54:34.605Z,21.47
2022-08-14T20:57:11.324Z,21.54
2022-08-14T20:59:53.100Z,21.50
2022-08-14T21:02:34.288Z,21.48
2022-08-14T21:05:17.065Z,21.37
2022-08-14T21:07:51.182Z,21.44
2022-08-14T21:10:33.639Z,21.38
2022-08-14T21:13:26.442Z,21.40
2022-08-14T21:15:57.116Z,21.41
2022-08-14T21:18:28.614Z,21.34
2022-08-14T21:20:56.961Z,21.28
2022-08-14T21:23:23.541Z,21.21
2022-08-14T21:25:50.222Z,21.05
2022-08-14T21:28:29.307Z,21.06
2022-08-14T21:30:57.937Z,20.88
2022-08-14T21:33:25.232Z,20.86
2022-08-14T21:35:55.671Z,20.85
2022-08-14T21:38:34.231Z,20.88
2022-08-14T21:41:42.913Z,20.91
2022-08-14T21:44:17.401Z,20.86
2022-08-14T21:46:49.470Z,20.81
2022-08-14T21:49:22.369Z,20.80
2022-08-14T21:51:59.815Z,20.78
2022-08-14T21:54:49.794Z,20.77
2022-08-14T21:57:20.883Z,20.75
2022-08-14T22:00:35.176Z,20.74
2022-08-14T22:03:00.290Z,20.82
2022-08-14T22:05:29.476Z,20.73
2022-08-14T22:07:56.636Z,20.63
2022-08-14T22:10:24.245Z,20.50
2022-08-14T22:13:00.242Z,20.56
2022-08-14T22:15:27.774Z,20.56
2022-08-14T22:17:54.978Z,20.58
2022-08-14T22:20:25.466Z,20.60
2022-08-14T22:22:56.256Z,20.64
2022-08-14T22:25:34.081Z,20.60
2022-08-14T22:28:21.396Z,20.60
2022-08-14T22:30:55.010Z,20.48
2022-08-14T22:33:31.298Z,20.45
2022-08-14T22:35:59.000Z,20.33
2022-08-14T22:38:36.417Z,20.25
2022-08-14T22:41:25.650Z,20.25
2022-08-14T22:43:54.213Z,20.25
2022-08-14T22:46:21.225Z,20.16
2022-08-14T22:48:49.265Z,20.23
2022-08-14T22:51:18.214Z,19.96
2022-08-14T22:53:46.098Z,19.90
2022-08-14T22:56:20.866Z,19.72
2022-08-14T22:58:49.971Z,19.70
2022-08-14T23:01:56.293Z,19.75
2022-08-14T23:04:35.194Z,19.64
2022-08-14T23:07:21.932Z,19.54
2022-08-14T23:09:56.767Z,19.59
2022-08-14T23:12:27.386Z,19.47
2022-08-14T23:14:54.572Z,19.41
2022-08-14T23:17:21.438Z,19.25
2022-08-14T23:19:48.204Z,19.07
2022-08-14T23:22:22.667Z,19.06
2022-08-14T23:24:50.806Z,18.99
2022-08-14T23:27:27.061Z,19.01
2022-08-14T23:30:33.999Z,19.03
2022-08-14T23:33:01.754Z,19.04
2022-08-14T23:35:28.666Z,19.09
2022-08-14T23:38:01.783Z,19.03
2022-08-14T23:40:30.263Z,19.00
2022-08-14T23:43:09.708Z,18.95
2022-08-14T23:45:39.534Z,18.83
2022-08-14T23:48:12.396Z,18.91
2022-08-14T23:50:40.516Z,18.88
2022-08-14T23:53:28.324Z,18.84
2022-08-14T23:56:06.001Z,18.66
2022-08-14T23:58:37.002Z,18.60
